createdAt,value
2019-01-23T00:00:58.525Z,-0.18
2019-01-23T00:03:27.637Z,-0.25
2019-01-23T00:05:56.816Z,-0.26
2019-01-23T00:08:25.895Z,-0.26
2019-01-23T00:10:55.007Z,-0.24
2019-01-23T00:13:24.082Z,-0.29
2019-01-23T00:15:53.232Z,-0.31
2019-01-23T00:18:22.306Z,-0.29
2019-01-23T00:20:51.381Z,-0.25
2019-01-23T00:23:20.479Z,-0.17
2019-01-23T00:25:49.544Z,-0.09
2019-01-23T00:28:18.748Z,-0.11
2019-01-23T00:30:47.824Z,-0.25
2019-01-23T00:33:16.907Z,-0.13
2019-01-23T00:35:45.951Z,-0.14
2019-01-23T00:38:15.025Z,-0.24
2019-01-23T00:40:44.080Z,-0.09
2019-01-23T00:43:13.168Z,-0.07
2019-01-23T00:45:42.250Z,-0.31
2019-01-23T00:48:11.325Z,-0.02
2019-01-23T00:50:40.491Z,-0.13
2019-01-23T00:53:09.537Z,-0.11
2019-01-23T00:55:38.618Z,-0.03
2019-01-23T00:58:07.644Z,-0.06
2019-01-23T01:00:36.697Z,0.10
2019-01-23T01:03:05.936Z,0.00
2019-01-23T01:05:35.012Z,-0.02
2019-01-23T01:08:04.168Z,-0.10
2019-01-23T01:10:33.206Z,-0.08
2019-01-23T01:13:02.401Z,-0.10
2019-01-23T01:15:31.485Z,0.02
2019-01-23T01:18:00.512Z,-0.03
2019-01-23T01:20:29.575Z,0.07
2019-01-23T01:22:58.619Z,0.07
2019-01-23T01:25:27.696Z,-0.03
2019-01-23T01:27:56.723Z,-0.01
2019-01-23T01:30:25.851Z,0.09
2019-01-23T01:32:54.914Z,0.12
2019-01-23T01:35:24.000Z,0.10
2019-01-23T01:37:53.221Z,0.15
2019-01-23T01:40:22.231Z,0.10
2019-01-23T01:42:51.309Z,0.16
2019-01-23T01:45:20.334Z,0.06
2019-01-23T01:47:49.398Z,0.15
2019-01-23T01:50:20.403Z,0.04
2019-01-23T01:52:49.486Z,0.15
2019-01-23T01:55:18.582Z,0.09
2019-01-23T01:57:47.747Z,0.14
2019-01-23T02:00:26.100Z,0.20
2019-01-23T02:02:55.173Z,0.10
2019-01-23T02:05:24.233Z,0.18
2019-01-23T02:07:53.285Z,0.09
2019-01-23T02:10:22.328Z,0.14
2019-01-23T02:12:51.397Z,0.16
2019-01-23T02:15:20.707Z,0.17
2019-01-23T02:17:49.779Z,0.22
2019-01-23T02:20:23.821Z,0.11
2019-01-23T02:22:52.923Z,0.17
2019-01-23T02:25:22.008Z,0.12
2019-01-23T02:27:51.104Z,0.16
2019-01-23T02:30:24.428Z,0.12
2019-01-23T02:32:53.518Z,0.20
2019-01-23T02:35:22.596Z,0.28
2019-01-23T02:37:51.658Z,0.20
2019-01-23T02:40:24.050Z,0.21
2019-01-23T02:42:53.133Z,0.28
2019-01-23T02:45:22.565Z,0.29
2019-01-23T02:47:51.646Z,0.38
2019-01-23T02:50:20.741Z,0.27
2019-01-23T02:52:49.800Z,0.19
2019-01-23T02:55:18.875Z,0.30
2019-01-23T02:57:47.926Z,0.30
2019-01-23T03:00:18.492Z,0.22
2019-01-23T03:02:47.736Z,0.41
2019-01-23T03:05:18.120Z,0.31
2019-01-23T03:07:47.191Z,0.32
2019-01-23T03:10:18.250Z,0.38
2019-01-23T03:12:47.312Z,0.32
2019-01-23T03:15:16.562Z,0.44
2019-01-23T03:17:45.612Z,0.32
2019-01-23T03:20:16.895Z,0.40
2019-01-23T03:22:46.038Z,0.45
2019-01-23T03:25:15.162Z,0.42
2019-01-23T03:27:44.152Z,0.29
2019-01-23T03:30:22.701Z,0.40
2019-01-23T03:32:51.758Z,0.39
2019-01-23T03:35:20.840Z,0.31
2019-01-23T03:37:49.891Z,0.26
2019-01-23T03:40:21.642Z,0.45
2019-01-23T03:42:50.844Z,0.40
2019-01-23T03:45:20.024Z,0.39
2019-01-23T03:47:49.179Z,0.35
2019-01-23T03:50:19.552Z,0.43
2019-01-23T03:52:48.635Z,0.43
2019-01-23T03:55:18.142Z,0.37
2019-01-23T03:57:47.322Z,0.33
2019-01-23T04:00:18.602Z,0.48
2019-01-23T04:02:47.898Z,0.48
2019-01-23T04:05:16.982Z,0.31
2019-01-23T04:07:46.127Z,0.36
2019-01-23T04:10:15.994Z,0.43
2019-01-23T04:12:45.057Z,0.42
2019-01-23T04:15:14.896Z,0.44
2019-01-23T04:17:43.947Z,0.47
2019-01-23T04:20:18.199Z,0.45
2019-01-23T04:22:47.344Z,0.31
2019-01-23T04:25:16.985Z,0.44
2019-01-23T04:27:46.036Z,0.33
2019-01-23T04:30:18.541Z,0.49
2019-01-23T04:32:47.596Z,0.38
2019-01-23T04:35:16.636Z,0.43
2019-01-23T04:37:45.753Z,0.41
2019-01-23T04:40:15.170Z,0.35
2019-01-23T04:42:44.350Z,0.35
2019-01-23T04:45:14.637Z,0.43
2019-01-23T04:47:43.717Z,0.26
2019-01-23T04:50:14.037Z,0.28
2019-01-23T04:53:11.108Z,0.06
2019-01-23T04:55:41.312Z,0.15
2019-01-23T04:58:10.330Z,0.21
2019-01-23T05:00:39.419Z,0.02
2019-01-23T05:03:08.460Z,-0.06
2019-01-23T05:05:37.567Z,-0.10
2019-01-23T05:08:06.595Z,-0.20
2019-01-23T05:10:35.641Z,-0.31
2019-01-23T05:13:04.698Z,-0.34
2019-01-23T05:15:33.783Z,-0.43
2019-01-23T05:18:02.833Z,-0.48
2019-01-23T05:20:31.905Z,-0.48
2019-01-23T05:23:00.962Z,-0.33
2019-01-23T05:25:33.216Z,-0.21
2019-01-23T05:28:02.270Z,-0.11
2019-01-23T05:30:31.323Z,-0.02
2019-01-23T05:33:00.354Z,0.08
2019-01-23T05:35:29.414Z,0.18
2019-01-23T05:37:58.434Z,0.08
2019-01-23T05:40:27.497Z,0.12
2019-01-23T05:42:58.734Z,0.24
2019-01-23T05:45:27.828Z,0.23
2019-01-23T05:47:56.881Z,0.13
2019-01-23T05:50:26.023Z,0.17
2019-01-23T05:52:55.072Z,0.17
2019-01-23T05:55:24.175Z,0.07
2019-01-23T05:57:53.260Z,-0.03
2019-01-23T06:00:23.209Z,0.00
2019-01-23T06:02:52.311Z,-0.11
2019-01-23T06:05:21.513Z,-0.10
2019-01-23T06:07:50.568Z,-0.17
2019-01-23T06:10:19.632Z,-0.21
2019-01-23T06:12:48.688Z,-0.25
2019-01-23T06:15:17.741Z,-0.37
2019-01-23T06:17:46.816Z,-0.47
2019-01-23T06:20:17.553Z,-0.49
2019-01-23T06:22:46.648Z,-0.68
2019-01-23T06:25:15.735Z,-0.66
2019-01-23T06:27:44.824Z,-0.71
2019-01-23T06:30:24.722Z,-0.80
2019-01-23T06:32:53.801Z,-0.70
2019-01-23T06:35:22.859Z,-0.57
2019-01-23T06:37:51.935Z,-0.66
2019-01-23T06:40:21.038Z,-0.51
2019-01-23T06:42:50.138Z,-0.50
2019-01-23T06:45:19.442Z,-0.40
2019-01-23T06:47:49.027Z,-0.43
2019-01-23T06:50:22.068Z,-0.31
2019-01-23T06:52:51.246Z,-0.35
2019-01-23T06:55:20.479Z,-0.28
2019-01-23T06:57:49.567Z,-0.47
2019-01-23T07:00:20.987Z,-0.54
2019-01-23T07:02:50.095Z,-0.59
2019-01-23T07:05:19.203Z,-0.54
2019-01-23T07:07:48.284Z,-0.45
2019-01-23T07:10:19.818Z,-0.30
2019-01-23T07:12:48.902Z,-0.32
2019-01-23T07:15:18.017Z,-0.38
2019-01-23T07:17:47.074Z,-0.37
2019-01-23T07:20:27.659Z,-0.34
2019-01-23T07:22:56.685Z,-0.35
2019-01-23T07:25:26.969Z,-0.32
2019-01-23T07:27:56.031Z,-0.38
2019-01-23T07:30:27.760Z,-0.44
2019-01-23T07:32:56.827Z,-0.42
2019-01-23T07:35:25.876Z,-0.44
2019-01-23T07:37:55.003Z,-0.41
2019-01-23T07:40:24.087Z,-0.38
2019-01-23T07:42:53.149Z,-0.30
2019-01-23T07:45:22.243Z,-0.15
2019-01-23T07:47:51.313Z,-0.07
2019-01-23T07:50:20.379Z,-0.05
2019-01-23T07:52:49.478Z,-0.03
2019-01-23T07:55:18.725Z,-0.14
2019-01-23T07:57:47.759Z,-0.20
2019-01-23T08:00:18.504Z,-0.25
2019-01-23T08:02:47.556Z,-0.35
2019-01-23T08:05:19.562Z,-0.36
2019-01-23T08:07:48.805Z,-0.42
2019-01-23T08:10:18.030Z,-0.37
2019-01-23T08:12:47.115Z,-0.39
2019-01-23T08:15:18.693Z,-0.42
2019-01-23T08:17:47.768Z,-0.39
2019-01-23T08:20:18.329Z,-0.36
2019-01-23T08:22:47.383Z,-0.26
2019-01-23T08:25:16.565Z,-0.26
2019-01-23T08:27:45.645Z,-0.10
2019-01-23T08:30:15.750Z,-0.10
2019-01-23T08:32:44.852Z,-0.02
2019-01-23T08:35:13.984Z,0.07
2019-01-23T08:37:43.071Z,0.19
2019-01-23T08:40:13.560Z,0.18
2019-01-23T08:42:42.658Z,0.12
2019-01-23T08:45:12.060Z,0.35
2019-01-23T08:47:41.153Z,0.36
2019-01-23T08:50:17.706Z,0.42
2019-01-23T08:52:46.767Z,0.42
2019-01-23T08:55:15.813Z,0.48
2019-01-23T08:57:44.916Z,0.71
2019-01-23T09:00:14.147Z,0.52
2019-01-23T09:02:43.257Z,0.59
2019-01-23T09:05:12.352Z,0.63
2019-01-23T09:07:41.437Z,0.55
2019-01-23T09:10:13.983Z,0.60
2019-01-23T09:12:43.088Z,0.54
2019-01-23T09:15:12.705Z,0.46
2019-01-23T09:17:41.725Z,0.53
2019-01-23T09:20:12.802Z,0.52
2019-01-23T09:22:41.865Z,0.59
2019-01-23T09:25:12.388Z,0.71
2019-01-23T09:27:41.469Z,0.63
2019-01-23T09:30:16.902Z,0.75
2019-01-23T09:33:29.231Z,0.74
2019-01-23T09:36:24.057Z,0.90
2019-01-23T09:39:27.230Z,1.22
2019-01-23T09:42:39.761Z,1.46
2019-01-23T09:46:02.174Z,1.67
2019-01-23T09:49:14.420Z,1.49
2019-01-23T09:52:33.813Z,1.36
2019-01-23T09:55:02.999Z,1.43
2019-01-23T09:57:34.844Z,1.45
2019-01-23T10:00:04.945Z,1.50
2019-01-23T10:02:34.006Z,1.60
2019-01-23T10:05:03.099Z,1.72
2019-01-23T10:07:32.186Z,1.71
2019-01-23T10:10:01.295Z,1.63
2019-01-23T10:12:30.300Z,1.69
2019-01-23T10:14:59.365Z,2.05
2019-01-23T10:17:28.453Z,1.93
2019-01-23T10:19:57.522Z,1.74
2019-01-23T10:22:26.612Z,2.05
2019-01-23T10:24:55.674Z,2.22
2019-01-23T10:27:24.736Z,2.15
2019-01-23T10:29:53.781Z,1.99
2019-01-23T10:32:22.883Z,2.27
2019-01-23T10:34:51.958Z,2.63
2019-01-23T10:37:21.012Z,2.52
2019-01-23T10:39:50.076Z,2.49
2019-01-23T10:42:19.181Z,2.26
2019-01-23T10:44:48.198Z,2.36
2019-01-23T10:47:17.275Z,2.38
2019-01-23T10:49:46.335Z,2.42
2019-01-23T10:52:15.425Z,2.36
2019-01-23T10:54:44.468Z,2.31
2019-01-23T10:57:13.562Z,2.04
2019-01-23T10:59:42.643Z,2.57
2019-01-23T11:02:11.695Z,2.28
2019-01-23T11:04:41.697Z,2.21
2019-01-23T11:07:11.022Z,2.43
2019-01-23T11:09:40.067Z,2.12
2019-01-23T11:12:09.143Z,2.18
2019-01-23T11:14:38.220Z,2.03
2019-01-23T11:17:07.263Z,2.30
2019-01-23T11:19:36.324Z,2.41
2019-01-23T11:22:05.488Z,2.64
2019-01-23T11:24:34.578Z,2.55
2019-01-23T11:27:03.652Z,2.49
2019-01-23T11:29:32.750Z,2.57
2019-01-23T11:32:01.832Z,2.51
2019-01-23T11:34:30.911Z,2.82
2019-01-23T11:36:59.988Z,2.38
2019-01-23T11:39:29.040Z,2.36
2019-01-23T11:41:58.199Z,2.54
2019-01-23T11:44:27.235Z,2.43
2019-01-23T11:46:56.323Z,2.43
2019-01-23T11:49:25.480Z,2.45
2019-01-23T11:51:54.751Z,2.78
2019-01-23T11:54:23.807Z,2.77
2019-01-23T11:56:52.890Z,2.63
2019-01-23T11:59:21.969Z,2.83
2019-01-23T12:01:51.040Z,2.76
2019-01-23T12:04:20.236Z,2.43
2019-01-23T12:06:49.313Z,2.09
2019-01-23T12:09:18.454Z,2.58
2019-01-23T12:11:47.533Z,2.45
2019-01-23T12:14:16.657Z,2.65
2019-01-23T12:16:45.709Z,2.13
2019-01-23T12:19:14.787Z,2.30
2019-01-23T12:21:43.815Z,2.35
2019-01-23T12:24:12.910Z,2.29
2019-01-23T12:26:41.983Z,2.44
2019-01-23T12:29:11.059Z,1.88
2019-01-23T12:31:40.278Z,1.99
2019-01-23T12:34:09.333Z,2.06
2019-01-23T12:36:38.384Z,2.07
2019-01-23T12:39:08.942Z,2.31
2019-01-23T12:41:38.025Z,2.23
2019-01-23T12:44:07.080Z,1.89
2019-01-23T12:46:36.153Z,2.03
2019-01-23T12:49:05.202Z,1.68
2019-01-23T12:51:34.354Z,2.12
2019-01-23T12:54:03.405Z,1.92
2019-01-23T12:56:32.525Z,2.09
2019-01-23T12:59:01.736Z,2.19
2019-01-23T13:01:30.819Z,2.06
2019-01-23T13:03:59.947Z,2.34
2019-01-23T13:06:29.234Z,2.37
2019-01-23T13:08:58.350Z,2.34
2019-01-23T13:11:27.533Z,2.05
2019-01-23T13:13:56.610Z,2.21
2019-01-23T13:16:25.792Z,2.28
2019-01-23T13:18:55.436Z,2.40
2019-01-23T13:21:24.493Z,2.88
2019-01-23T13:23:53.578Z,2.24
2019-01-23T13:26:22.651Z,2.45
2019-01-23T13:28:51.742Z,2.07
2019-01-23T13:31:20.828Z,2.25
2019-01-23T13:33:49.912Z,2.42
2019-01-23T13:36:18.957Z,2.12
2019-01-23T13:38:48.097Z,2.15
2019-01-23T13:41:17.222Z,2.24
2019-01-23T13:43:46.339Z,2.66
2019-01-23T13:46:15.445Z,2.43
2019-01-23T13:48:44.514Z,2.25
2019-01-23T13:51:13.758Z,2.04
2019-01-23T13:53:42.994Z,1.82
2019-01-23T13:56:12.334Z,1.59
2019-01-23T13:58:41.980Z,1.60
2019-01-23T14:01:11.295Z,1.74
2019-01-23T14:03:40.404Z,1.52
2019-01-23T14:06:09.541Z,1.97
2019-01-23T14:08:38.598Z,1.61
2019-01-23T14:11:07.685Z,1.44
2019-01-23T14:13:36.736Z,1.48
2019-01-23T14:16:06.438Z,1.54
2019-01-23T14:18:35.530Z,1.48
2019-01-23T14:21:04.665Z,1.64
2019-01-23T14:23:33.697Z,1.28
2019-01-23T14:26:02.918Z,1.42
2019-01-23T14:28:32.074Z,1.30
2019-01-23T14:31:01.143Z,1.10
2019-01-23T14:33:30.196Z,1.41
2019-01-23T14:35:59.300Z,1.46
2019-01-23T14:38:30.540Z,1.32
2019-01-23T14:40:59.459Z,1.17
2019-01-23T14:43:28.534Z,1.09
2019-01-23T14:45:57.717Z,1.00
2019-01-23T14:48:26.839Z,1.08
2019-01-23T14:50:55.944Z,1.13
2019-01-23T14:53:25.098Z,1.31
2019-01-23T14:55:54.245Z,1.29
2019-01-23T14:58:23.511Z,1.20
2019-01-23T15:00:52.588Z,1.06
2019-01-23T15:03:21.701Z,1.35
2019-01-23T15:05:50.869Z,1.17
2019-01-23T15:08:19.979Z,0.98
2019-01-23T15:10:49.055Z,1.26
2019-01-23T15:13:18.163Z,1.40
2019-01-23T15:15:47.263Z,1.22
2019-01-23T15:18:16.383Z,1.26
2019-01-23T15:20:45.443Z,1.27
2019-01-23T15:23:14.571Z,1.25
2019-01-23T15:25:43.668Z,1.18
2019-01-23T15:28:12.809Z,1.24
2019-01-23T15:30:41.941Z,1.10
2019-01-23T15:33:11.079Z,1.12
2019-01-23T15:35:40.146Z,1.12
2019-01-23T15:38:09.332Z,0.78
2019-01-23T15:40:39.192Z,0.70
2019-01-23T15:43:08.319Z,0.98
2019-01-23T15:45:37.445Z,0.97
2019-01-23T15:48:06.570Z,0.97
2019-01-23T15:50:35.684Z,0.67
2019-01-23T15:53:04.818Z,0.88
2019-01-23T15:55:34.038Z,0.90
2019-01-23T15:58:03.071Z,0.99
2019-01-23T16:00:33.316Z,0.77
2019-01-23T16:03:02.424Z,0.69
2019-01-23T16:05:31.502Z,0.83
2019-01-23T16:08:00.643Z,0.90
2019-01-23T16:10:30.300Z,0.61
2019-01-23T16:12:59.555Z,0.52
2019-01-23T16:15:29.722Z,0.73
2019-01-23T16:17:58.874Z,0.61
2019-01-23T16:20:28.097Z,0.53
2019-01-23T16:22:57.217Z,0.73
2019-01-23T16:25:26.292Z,0.74
2019-01-23T16:27:55.363Z,0.78
2019-01-23T16:30:35.977Z,0.87
2019-01-23T16:33:05.234Z,0.59
2019-01-23T16:35:38.542Z,0.62
2019-01-23T16:38:06.033Z,0.46
2019-01-23T16:40:35.138Z,0.43
2019-01-23T16:43:04.205Z,0.53
2019-01-23T16:45:33.327Z,0.52
2019-01-23T16:48:02.475Z,0.58
2019-01-23T16:50:31.630Z,0.60
2019-01-23T16:53:00.835Z,0.52
2019-01-23T16:55:29.920Z,0.46
2019-01-23T16:58:00.170Z,0.47
2019-01-23T17:00:29.494Z,0.29
2019-01-23T17:02:59.612Z,0.33
2019-01-23T17:05:30.385Z,0.57
2019-01-23T17:08:01.111Z,0.62
2019-01-23T17:10:30.251Z,0.37
2019-01-23T17:12:59.435Z,0.28
2019-01-23T17:15:28.549Z,0.24
2019-01-23T17:17:57.784Z,0.48
2019-01-23T17:20:47.788Z,0.40
2019-01-23T17:23:16.963Z,0.15
2019-01-23T17:25:46.078Z,0.10
2019-01-23T17:28:15.759Z,0.32
2019-01-23T17:30:44.886Z,0.34
2019-01-23T17:33:14.130Z,0.21
2019-01-23T17:35:43.313Z,0.27
2019-01-23T17:38:12.626Z,0.08
2019-01-23T17:40:47.224Z,0.22
2019-01-23T17:43:16.759Z,0.30
2019-01-23T17:45:47.326Z,0.28
2019-01-23T17:48:16.781Z,0.05
2019-01-23T17:50:56.729Z,0.09
2019-01-23T17:53:17.099Z,0.11
2019-01-23T17:55:48.344Z,0.09
2019-01-23T17:58:17.499Z,0.08
2019-01-23T18:01:05.219Z,-0.10
2019-01-23T18:03:42.646Z,0.09
2019-01-23T18:17:15.772Z,0.06
2019-01-23T18:20:07.302Z,0.14
2019-01-23T18:30:59.410Z,-0.30
2019-01-23T18:39:35.122Z,0.01
2019-01-23T18:45:00.903Z,-0.08
2019-01-23T18:49:15.873Z,-0.05
2019-01-23T18:54:47.868Z,-0.12
2019-01-23T18:57:51.326Z,-0.08
2019-01-23T19:01:15.586Z,-0.07
2019-01-23T19:03:47.240Z,-0.01
2019-01-23T19:06:43.288Z,-0.13
2019-01-23T19:09:05.364Z,-0.05
2019-01-23T19:11:38.721Z,-0.05
2019-01-23T19:14:13.635Z,-0.22
2019-01-23T19:16:43.262Z,-0.13
2019-01-23T19:19:21.723Z,-0.15
2019-01-23T19:22:20.684Z,-0.05
2019-01-23T19:25:13.385Z,-0.26
2019-01-23T19:27:57.780Z,-0.22
2019-01-23T19:30:29.880Z,-0.29
2019-01-23T19:33:13.550Z,-0.43
2019-01-23T19:38:27.421Z,-0.44
2019-01-23T19:40:58.712Z,-0.36
2019-01-23T19:44:27.636Z,-0.39
2019-01-23T19:46:54.245Z,-0.44
2019-01-23T19:49:25.701Z,-0.44
2019-01-23T19:55:07.136Z,-0.29
2019-01-23T19:58:31.553Z,-0.27
2019-01-23T20:05:05.787Z,-0.43
2019-01-23T20:07:51.447Z,-0.55
2019-01-23T20:10:35.004Z,-0.45
2019-01-23T20:13:20.127Z,-0.40
2019-01-23T20:15:50.911Z,-0.39
2019-01-23T20:18:21.897Z,-0.32
2019-01-23T20:38:38.812Z,-0.55
2019-01-23T20:41:08.030Z,-0.48
2019-01-23T20:43:37.254Z,-0.60
2019-01-23T20:46:19.960Z,-0.60
2019-01-23T20:48:56.928Z,-0.62
2019-01-23T20:51:26.325Z,-0.65
2019-01-23T20:53:57.942Z,-0.65
2019-01-23T20:56:28.808Z,-0.40
2019-01-23T20:59:08.740Z,-0.49
2019-01-23T21:01:40.365Z,-0.54
2019-01-23T21:04:11.351Z,-0.55
2019-01-23T21:06:40.668Z,-0.52
2019-01-23T21:09:30.511Z,-0.44
2019-01-23T21:12:02.349Z,-0.58
2019-01-23T21:14:35.041Z,-0.61
2019-01-23T21:17:04.288Z,-0.54
2019-01-23T21:19:35.665Z,-0.72
2019-01-23T21:22:04.693Z,-0.61
2019-01-23T21:24:40.480Z,-0.47
2019-01-23T21:27:09.610Z,-0.56
2019-01-23T21:29:40.235Z,-0.62
2019-01-23T21:32:09.434Z,-0.61
2019-01-23T21:34:38.574Z,-0.60
2019-01-23T21:41:19.648Z,-0.58
2019-01-23T21:47:20.672Z,-0.45
2019-01-23T21:49:50.415Z,-0.70
2019-01-23T21:52:19.585Z,-0.71
2019-01-23T21:54:48.780Z,-0.36
2019-01-23T21:57:17.999Z,-0.69
2019-01-23T21:59:47.408Z,-0.71
2019-01-23T22:02:16.532Z,-0.58
2019-01-23T22:04:45.710Z,-0.79
2019-01-23T22:07:14.978Z,-0.56
2019-01-23T22:09:44.159Z,-0.67
2019-01-23T22:12:13.349Z,-0.68
2019-01-23T22:14:42.507Z,-0.73
2019-01-23T22:17:11.559Z,-0.77
2019-01-23T22:19:40.713Z,-0.79
2019-01-23T22:22:09.841Z,-0.77
2019-01-23T22:24:39.095Z,-0.79
2019-01-23T22:27:08.242Z,-0.63
2019-01-23T22:29:37.343Z,-0.82
2019-01-23T22:32:06.502Z,-0.56
2019-01-23T22:34:47.722Z,-0.61
2019-01-23T22:37:44.856Z,-0.94
2019-01-23T22:40:14.920Z,-0.62
2019-01-23T22:42:44.057Z,-0.92
2019-01-23T22:45:14.959Z,-0.75
2019-01-23T22:47:44.065Z,-0.85
2019-01-23T22:50:18.396Z,-0.93
2019-01-23T22:52:47.505Z,-0.77
2019-01-23T22:55:16.648Z,-0.91
2019-01-23T22:57:45.808Z,-0.76
2019-01-23T23:00:41.437Z,-0.81
2019-01-23T23:03:13.146Z,-0.97
2019-01-23T23:05:42.220Z,-0.97
2019-01-23T23:08:11.370Z,-0.74
2019-01-23T23:10:40.482Z,-0.86
2019-01-23T23:13:09.562Z,-0.84
2019-01-23T23:15:38.753Z,-0.76
2019-01-23T23:18:07.833Z,-0.72
2019-01-23T23:20:36.985Z,-0.93
2019-01-23T23:23:06.163Z,-0.79
2019-01-23T23:25:35.277Z,-0.77
2019-01-23T23:28:04.347Z,-0.76
2019-01-23T23:30:33.432Z,-0.85
2019-01-23T23:33:02.518Z,-0.92
2019-01-23T23:35:31.577Z,-0.94
2019-01-23T23:38:00.691Z,-0.95
2019-01-23T23:40:29.744Z,-0.98
2019-01-23T23:42:58.849Z,-0.92
2019-01-23T23:45:27.933Z,-0.89
2019-01-23T23:47:57.035Z,-0.87
2019-01-23T23:50:26.090Z,-0.95
2019-01-23T23:52:55.160Z,-1.07
2019-01-23T23:55:24.304Z,-0.95
2019-01-23T23:57:53.373Z,-0.85
